Ternholm — OWIM2 — position and weather

sailwx.info

Track history (hours):
 
Tides and Currents Weather Stations Pressure Air Temp Water Temp Dewpoint Dewpoint Depression Visibility Wind Speed Wind Dir Waves Ship Positions

Ternholm

Last reported at 2016-Feb-10 21:33 UTC. Time now 2016-Feb-10 22:08 UTC.
Position N 57°41' E 011°52'.

Length 141 m; draft 8.7 m.

Type: Tanker. MMSI: 219076000.

Date/timePositionNaut miles runAvg speedWind from/ knotsBaromVisibWave heightAir tempDewpointWater temp
2016-Feb-10 21:33N 57°41' E 011°52'0 0.0
2016-Feb-10 20:33N 57°41' E 011°52'0 0.0
2016-Feb-10 19:33N 57°41' E 011°52'0 0.0
2016-Feb-10 18:33N 57°41' E 011°52'0 0.0
2016-Feb-10 17:33N 57°41' E 011°52'0 0.0
2016-Feb-10 16:33N 57°41' E 011°52'0 0.0
2016-Feb-10 15:33N 57°41' E 011°52'0 0.0
2016-Feb-10 14:33N 57°41' E 011°52'0 0.0
2016-Feb-10 13:33N 57°41' E 011°52'0 0.0
2016-Feb-10 12:33N 57°41' E 011°52'0 0.0
2016-Feb-10 11:33N 57°41' E 011°52'0 0.0
2016-Feb-10 10:33N 57°41' E 011°52'0 0.0
2016-Feb-10 09:33N 57°41' E 011°52'0 0.0
2016-Feb-10 08:33N 57°41' E 011°52'0 0.0
2016-Feb-10 07:33N 57°41' E 011°52'0 0.0
2016-Feb-10 06:33N 57°41' E 011°52'0 0.1
2016-Feb-10 05:34N 57°41' E 011°52'8 7.8
2016-Feb-10 04:33N 57°37' E 011°40'1010.3
2016-Feb-10 03:33N 57°27' E 011°40'1111.5
2016-Feb-10 02:33N 57°17' E 011°50'1111.4
2016-Feb-10 01:33N 57°06' E 011°58'1211.7
2016-Feb-10 00:33N 56°55' E 012°05'1211.7
2016-Feb-09 23:33N 56°44' E 012°10'1211.7
2016-Feb-09 22:33N 56°32' E 012°15'1211.6
2016-Feb-09 21:33N 56°21' E 012°21'1211.6
2016-Feb-09 20:33N 56°10' E 012°28'1111.4
2016-Feb-09 19:33N 56°01' E 012°40'1111.5
2016-Feb-09 18:33N 55°50' E 012°46'1211.7
2016-Feb-09 17:33N 55°40' E 012°56'9 8.9
2016-Feb-09 16:33N 55°33' E 012°47'10 9.9
2016-Feb-09 15:33N 55°24' E 012°41'9 9.4
2016-Feb-09 14:33N 55°16' E 012°51'1111.2
2016-Feb-09 13:33N 55°15' E 013°11'1110.9
2016-Feb-09 12:33N 55°15' E 013°30'1010.4
2016-Feb-09 11:33N 55°14' E 013°48'10 9.9
2016-Feb-09 10:33N 55°14' E 014°05'9 8.8
2016-Feb-09 09:33N 55°17' E 014°20'10 9.6
2016-Feb-09 08:33N 55°24' E 014°31'9 9.1
2016-Feb-09 07:33N 55°29' E 014°44'10 9.7
2016-Feb-09 06:33N 55°34' E 014°58'1010.0
2016-Feb-09 05:33N 55°39' E 015°14'10110.0
2016-Feb-08 19:26N 56°54' E 017°16'910.1
2016-Feb-08 18:33N 57°02' E 017°22'10 9.8
2016-Feb-08 17:33N 57°12' E 017°29'1110.2
2016-Feb-08 16:31N 57°22' E 017°36'1010.1
2016-Feb-08 15:33N 57°31' E 017°42'  
2016-Feb-04 21:27N 55°40' E 015°32'1011.5
2016-Feb-04 20:33N 55°35' E 015°16'1211.6
2016-Feb-04 19:33N 55°29' E 014°58'1211.6
2016-Feb-04 18:33N 55°24' E 014°40'1211.6
2016-Feb-04 17:33N 55°15' E 014°27'1211.7
2016-Feb-04 16:33N 55°06' E 014°15'1111.2
2016-Feb-04 15:33N 54°59' E 013°59'1111.5
2016-Feb-04 14:33N 54°55' E 013°40'3411.4
2016-Feb-04 11:33N 54°45' E 012°43'1211.7
2016-Feb-04 10:33N 54°38' E 012°26'1111.2
2016-Feb-04 09:33N 54°29' E 012°15'1110.6
2016-Feb-04 08:33N 54°25' E 011°59'1111.4
2016-Feb-04 07:33N 54°27' E 011°39'1211.7
2016-Feb-04 06:33N 54°32' E 011°21'1211.7
2016-Feb-04 05:33N 54°37' E 011°04'1110.6
2016-Feb-04 04:33N 54°45' E 010°52'1111.3
2016-Feb-04 03:33N 54°56' E 010°56'1111.1
2016-Feb-04 02:33N 55°07' E 011°02'1211.6
2016-Feb-04 01:31N 55°19' E 011°02'11710.4
2016-Feb-03 14:18N 57°14' E 011°34'810.2
2016-Feb-03 13:33N 57°22' E 011°35'10 9.8
2016-Feb-03 12:33N 57°31' E 011°36'1010.4
2016-Feb-03 11:33N 57°40' E 011°47'3 3.2
2016-Feb-03 10:31N 57°41' E 011°52'0 0.0
2016-Feb-03 09:31N 57°41' E 011°52'0 0.0
2016-Feb-03 08:31N 57°41' E 011°52'0 0.0
2016-Feb-03 07:31N 57°41' E 011°52'0 0.0
2016-Feb-03 06:31N 57°41' E 011°52'0 0.0
2016-Feb-03 05:28N 57°41' E 011°52'0 0.0
2016-Feb-03 04:31N 57°41' E 011°52'0 0.0
2016-Feb-03 03:31N 57°41' E 011°52'0 0.0
2016-Feb-03 02:31N 57°41' E 011°52'0 0.0
2016-Feb-03 01:31N 57°41' E 011°52'0 0.0
2016-Feb-03 00:31N 57°41' E 011°52'0 0.0
2016-Feb-02 23:31N 57°41' E 011°52'0 0.0
2016-Feb-02 22:31N 57°41' E 011°52'0 0.0
2016-Feb-02 21:28N 57°41' E 011°52'0 0.0
2016-Feb-02 20:31N 57°41' E 011°52'0 0.0
2016-Feb-02 19:31N 57°41' E 011°52'0 0.0
2016-Feb-02 18:28N 57°41' E 011°52'0 0.0
2016-Feb-02 17:31N 57°41' E 011°52'0 0.0
2016-Feb-02 16:31N 57°41' E 011°52'0 0.0
2016-Feb-02 15:31N 57°41' E 011°52'0 0.0
2016-Feb-02 14:31N 57°41' E 011°52'0 0.0
2016-Feb-02 13:31N 57°41' E 011°52'0 0.0
2016-Feb-02 12:31N 57°41' E 011°52'0 0.0
2016-Feb-02 11:34N 57°41' E 011°52'0 0.0
2016-Feb-02 10:34N 57°41' E 011°52'0 0.0
2016-Feb-02 09:33N 57°41' E 011°52'0 0.0
2016-Feb-02 08:33N 57°41' E 011°52'0 0.0
2016-Feb-02 07:33N 57°41' E 011°52'0 0.0
2016-Feb-02 06:33N 57°41' E 011°52'0 0.0
2016-Feb-02 05:33N 57°41' E 011°52'0 0.0
2016-Feb-02 04:33N 57°41' E 011°52'0 0.0
2016-Feb-02 03:33N 57°41' E 011°52'0 0.0
2016-Feb-02 02:33N 57°41' E 011°52'0 0.0
2016-Feb-02 01:33N 57°41' E 011°52'0 0.0
2016-Feb-02 00:33N 57°41' E 011°52'0 0.0
2016-Feb-01 23:33N 57°41' E 011°52'7 6.5
2016-Feb-01 22:33N 57°38' E 011°42'10 9.8
2016-Feb-01 21:33N 57°28' E 011°39'1211.7
2016-Feb-01 20:33N 57°18' E 011°47'1212.4
2016-Feb-01 19:33N 57°07' E 011°58'1111.4
2016-Feb-01 18:33N 56°56' E 012°05'1110.7
2016-Feb-01 17:33N 56°46' E 012°10'1111.4
2016-Feb-01 16:33N 56°35' E 012°15'1210.5
2016-Feb-01 15:27N 56°23' E 012°21'1011.5
2016-Feb-01 14:33N 56°14' E 012°26'1211.6
2016-Feb-01 13:33N 56°04' E 012°38'1111.3
2016-Feb-01 12:33N 55°53' E 012°45'1111.4
2016-Feb-01 11:33N 55°43' E 012°53'8 8.3
2016-Feb-01 10:33N 55°35' E 012°50'1010.1
2016-Feb-01 09:34N 55°26' E 012°42'1111.3
2016-Feb-01 08:33N 55°16' E 012°52'1211.5
2016-Feb-01 07:33N 55°16' E 013°12'1211.6
2016-Feb-01 06:33N 55°15' E 013°33'1111.4
2016-Feb-01 05:33N 55°14' E 013°53'1111.2
2016-Feb-01 04:33N 55°13' E 014°12'1111.1
2016-Feb-01 03:33N 55°21' E 014°26'1211.8
2016-Feb-01 02:33N 55°29' E 014°41'1111.3
2016-Feb-01 01:33N 55°34' E 014°59'1211.5
2016-Feb-01 00:33N 55°40' E 015°17'  
Track history (hours):
 
Tides and Currents Weather Stations Pressure Air Temp Water Temp Dewpoint Dewpoint Depression Visibility Wind Speed Wind Dir Waves Ship Positions

Ternholm

Last reported at 2016-Feb-10 21:33 UTC. Time now 2016-Feb-10 22:08 UTC.
Position N 57°41' E 011°52'.

Length 141 m; draft 8.7 m.

Type: Tanker. MMSI: 219076000.

Date/timePositionNaut miles runAvg speedWind from/ knotsBaromVisibWave heightAir tempDewpointWater temp
2016-Feb-10 21:33N 57°41' E 011°52'0 0.0
2016-Feb-10 20:33N 57°41' E 011°52'0 0.0
2016-Feb-10 19:33N 57°41' E 011°52'0 0.0
2016-Feb-10 18:33N 57°41' E 011°52'0 0.0
2016-Feb-10 17:33N 57°41' E 011°52'0 0.0
2016-Feb-10 16:33N 57°41' E 011°52'0 0.0
2016-Feb-10 15:33N 57°41' E 011°52'0 0.0
2016-Feb-10 14:33N 57°41' E 011°52'0 0.0
2016-Feb-10 13:33N 57°41' E 011°52'0 0.0
2016-Feb-10 12:33N 57°41' E 011°52'0 0.0
2016-Feb-10 11:33N 57°41' E 011°52'0 0.0
2016-Feb-10 10:33N 57°41' E 011°52'0 0.0
2016-Feb-10 09:33N 57°41' E 011°52'0 0.0
2016-Feb-10 08:33N 57°41' E 011°52'0 0.0
2016-Feb-10 07:33N 57°41' E 011°52'0 0.0
2016-Feb-10 06:33N 57°41' E 011°52'0 0.1
2016-Feb-10 05:34N 57°41' E 011°52'8 7.8
2016-Feb-10 04:33N 57°37' E 011°40'1010.3
2016-Feb-10 03:33N 57°27' E 011°40'1111.5
2016-Feb-10 02:33N 57°17' E 011°50'1111.4
2016-Feb-10 01:33N 57°06' E 011°58'1211.7
2016-Feb-10 00:33N 56°55' E 012°05'1211.7
2016-Feb-09 23:33N 56°44' E 012°10'1211.7
2016-Feb-09 22:33N 56°32' E 012°15'1211.6
2016-Feb-09 21:33N 56°21' E 012°21'1211.6
2016-Feb-09 20:33N 56°10' E 012°28'1111.4
2016-Feb-09 19:33N 56°01' E 012°40'1111.5
2016-Feb-09 18:33N 55°50' E 012°46'1211.7
2016-Feb-09 17:33N 55°40' E 012°56'9 8.9
2016-Feb-09 16:33N 55°33' E 012°47'10 9.9
2016-Feb-09 15:33N 55°24' E 012°41'9 9.4
2016-Feb-09 14:33N 55°16' E 012°51'1111.2
2016-Feb-09 13:33N 55°15' E 013°11'1110.9
2016-Feb-09 12:33N 55°15' E 013°30'1010.4
2016-Feb-09 11:33N 55°14' E 013°48'10 9.9
2016-Feb-09 10:33N 55°14' E 014°05'9 8.8
2016-Feb-09 09:33N 55°17' E 014°20'10 9.6
2016-Feb-09 08:33N 55°24' E 014°31'9 9.1
2016-Feb-09 07:33N 55°29' E 014°44'10 9.7
2016-Feb-09 06:33N 55°34' E 014°58'1010.0
2016-Feb-09 05:33N 55°39' E 015°14'10110.0
2016-Feb-08 19:26N 56°54' E 017°16'910.1
2016-Feb-08 18:33N 57°02' E 017°22'10 9.8
2016-Feb-08 17:33N 57°12' E 017°29'1110.2
2016-Feb-08 16:31N 57°22' E 017°36'1010.1
2016-Feb-08 15:33N 57°31' E 017°42'  
2016-Feb-04 21:27N 55°40' E 015°32'1011.5
2016-Feb-04 20:33N 55°35' E 015°16'1211.6
2016-Feb-04 19:33N 55°29' E 014°58'1211.6
2016-Feb-04 18:33N 55°24' E 014°40'1211.6
2016-Feb-04 17:33N 55°15' E 014°27'1211.7
2016-Feb-04 16:33N 55°06' E 014°15'1111.2
2016-Feb-04 15:33N 54°59' E 013°59'1111.5
2016-Feb-04 14:33N 54°55' E 013°40'3411.4
2016-Feb-04 11:33N 54°45' E 012°43'1211.7
2016-Feb-04 10:33N 54°38' E 012°26'1111.2
2016-Feb-04 09:33N 54°29' E 012°15'1110.6
2016-Feb-04 08:33N 54°25' E 011°59'1111.4
2016-Feb-04 07:33N 54°27' E 011°39'1211.7
2016-Feb-04 06:33N 54°32' E 011°21'1211.7
2016-Feb-04 05:33N 54°37' E 011°04'1110.6
2016-Feb-04 04:33N 54°45' E 010°52'1111.3
2016-Feb-04 03:33N 54°56' E 010°56'1111.1
2016-Feb-04 02:33N 55°07' E 011°02'1211.6
2016-Feb-04 01:31N 55°19' E 011°02'11710.4
2016-Feb-03 14:18N 57°14' E 011°34'810.2
2016-Feb-03 13:33N 57°22' E 011°35'10 9.8
2016-Feb-03 12:33N 57°31' E 011°36'1010.4
2016-Feb-03 11:33N 57°40' E 011°47'3 3.2
2016-Feb-03 10:31N 57°41' E 011°52'0 0.0
2016-Feb-03 09:31N 57°41' E 011°52'0 0.0
2016-Feb-03 08:31N 57°41' E 011°52'0 0.0
2016-Feb-03 07:31N 57°41' E 011°52'0 0.0
2016-Feb-03 06:31N 57°41' E 011°52'0 0.0
2016-Feb-03 05:28N 57°41' E 011°52'0 0.0
2016-Feb-03 04:31N 57°41' E 011°52'0 0.0
2016-Feb-03 03:31N 57°41' E 011°52'0 0.0
2016-Feb-03 02:31N 57°41' E 011°52'0 0.0
2016-Feb-03 01:31N 57°41' E 011°52'0 0.0
2016-Feb-03 00:31N 57°41' E 011°52'0 0.0
2016-Feb-02 23:31N 57°41' E 011°52'0 0.0
2016-Feb-02 22:31N 57°41' E 011°52'0 0.0
2016-Feb-02 21:28N 57°41' E 011°52'0 0.0
2016-Feb-02 20:31N 57°41' E 011°52'0 0.0
2016-Feb-02 19:31N 57°41' E 011°52'0 0.0
2016-Feb-02 18:28N 57°41' E 011°52'0 0.0
2016-Feb-02 17:31N 57°41' E 011°52'0 0.0
2016-Feb-02 16:31N 57°41' E 011°52'0 0.0
2016-Feb-02 15:31N 57°41' E 011°52'0 0.0
2016-Feb-02 14:31N 57°41' E 011°52'0 0.0
2016-Feb-02 13:31N 57°41' E 011°52'0 0.0
2016-Feb-02 12:31N 57°41' E 011°52'0 0.0
2016-Feb-02 11:34N 57°41' E 011°52'0 0.0
2016-Feb-02 10:34N 57°41' E 011°52'0 0.0
2016-Feb-02 09:33N 57°41' E 011°52'0 0.0
2016-Feb-02 08:33N 57°41' E 011°52'0 0.0
2016-Feb-02 07:33N 57°41' E 011°52'0 0.0
2016-Feb-02 06:33N 57°41' E 011°52'0 0.0
2016-Feb-02 05:33N 57°41' E 011°52'0 0.0
2016-Feb-02 04:33N 57°41' E 011°52'0 0.0
2016-Feb-02 03:33N 57°41' E 011°52'0 0.0
2016-Feb-02 02:33N 57°41' E 011°52'0 0.0
2016-Feb-02 01:33N 57°41' E 011°52'0 0.0
2016-Feb-02 00:33N 57°41' E 011°52'0 0.0
2016-Feb-01 23:33N 57°41' E 011°52'7 6.5
2016-Feb-01 22:33N 57°38' E 011°42'10 9.8
2016-Feb-01 21:33N 57°28' E 011°39'1211.7
2016-Feb-01 20:33N 57°18' E 011°47'1212.4
2016-Feb-01 19:33N 57°07' E 011°58'1111.4
2016-Feb-01 18:33N 56°56' E 012°05'1110.7
2016-Feb-01 17:33N 56°46' E 012°10'1111.4
2016-Feb-01 16:33N 56°35' E 012°15'1210.5
2016-Feb-01 15:27N 56°23' E 012°21'1011.5
2016-Feb-01 14:33N 56°14' E 012°26'1211.6
2016-Feb-01 13:33N 56°04' E 012°38'1111.3
2016-Feb-01 12:33N 55°53' E 012°45'1111.4
2016-Feb-01 11:33N 55°43' E 012°53'8 8.3
2016-Feb-01 10:33N 55°35' E 012°50'1010.1
2016-Feb-01 09:34N 55°26' E 012°42'1111.3
2016-Feb-01 08:33N 55°16' E 012°52'1211.5
2016-Feb-01 07:33N 55°16' E 013°12'1211.6
2016-Feb-01 06:33N 55°15' E 013°33'1111.4
2016-Feb-01 05:33N 55°14' E 013°53'1111.2
2016-Feb-01 04:33N 55°13' E 014°12'1111.1
2016-Feb-01 03:33N 55°21' E 014°26'1211.8
2016-Feb-01 02:33N 55°29' E 014°41'1111.3
2016-Feb-01 01:33N 55°34' E 014°59'1211.5
2016-Feb-01 00:33N 55°40' E 015°17'  

Dump ship's entire track history